首页
METAR-TAF:

METAR-TAF

机场 :

明尼阿波利斯-圣保罗国际机场

明尼阿波利斯, 明尼蘇達州, 美国

纬度: 44-52-59N, 经度: 093-13-44W, 海拔: 256米

当前天气观测

该预报发布于10分钟前的06:53 UTC
静风
温度 8°C
湿度 66%
气压 1008 hPa
能見度: 16.1公里
天空无云

METAR: KMSP 200653Z 00000KT 10SM CLR 08/02 A2976 RMK AO2 SLP078 T00780017 $

时间: 02:03 (07:03 UTC)

预报

该预报发布于1小时和43分钟前的05:20 UTC
预报有效从20日的 06点(UTC)到 21日的 12点(UTC)
风速4节,风向西转西南
能見度: 10公里
天空无云
从 20日的 1200点(UTC)
风速7节,风向东南
能見度: 10公里
少量云层高于25000英尺
从 20日的 2200点(UTC)
风速10节,风向东转东南
能見度: 10公里
阴天层高于20000英尺
从 21日的 0400点(UTC)
风速11节,风向东转东南
能見度: 10公里
阴天层高于7000英尺
附近有阵雨
从 21日的 0600点(UTC)
风速11节,风向东转东南
能見度: 9.7公里
阴天层高于5000英尺
小阵雨, 轻雾
从 21日的 0900点(UTC)
风速11节,风向东转东南
能見度: 6.4公里
阴天层高于1700英尺
小阵雨, 轻雾

TAF: KMSP 200520Z 2006/2112 25004KT P6SM SKC FM201200 14007KT P6SM FEW250 FM202200 12010KT P6SM OVC200 FM210400 11011KT P6SM VCSH OVC070 FM210600 11011KT 6SM -SHRA BR OVC050 FM210900 11011KT 4SM -SHRA BR OVC017

超过4000个机场的气象观测和天气预报(METAR&TAF报告)。

可查询的气象台以黄色和红色小点在地图上表示。

将鼠标移到小点上方,可查看气象台名称。

然后点击查看天气观测和预报。

如需切换地图:点击带黑十字的绿色按钮放大地图;点击带横线的绿色按钮缩小地图;或者点击绿色箭头查看邻近地区的地图。


METAR-TAF: